createdAt,value
2018-09-30T00:00:31.724Z,1015.84
2018-09-30T00:01:31.710Z,1015.87
2018-09-30T00:02:31.723Z,1015.82
2018-09-30T00:03:31.731Z,1015.84
2018-09-30T00:04:31.677Z,1015.82
2018-09-30T00:05:31.668Z,1015.79
2018-09-30T00:06:31.653Z,1015.76
2018-09-30T00:07:31.667Z,1015.74
2018-09-30T00:08:31.632Z,1015.73
2018-09-30T00:09:31.621Z,1015.77
2018-09-30T00:10:31.611Z,1015.79
2018-09-30T00:11:31.598Z,1015.77
2018-09-30T00:12:31.611Z,1015.75
2018-09-30T00:13:31.576Z,1015.78
2018-09-30T00:14:31.565Z,1015.75
2018-09-30T00:15:31.553Z,1015.72
2018-09-30T00:16:31.542Z,1015.71
2018-09-30T00:17:31.555Z,1015.63
2018-09-30T00:18:31.519Z,1015.70
2018-09-30T00:19:31.563Z,1015.65
2018-09-30T00:20:31.496Z,1015.65
2018-09-30T00:21:31.486Z,1015.67
2018-09-30T00:22:31.501Z,1015.67
2018-09-30T00:23:31.462Z,1015.61
2018-09-30T00:24:31.451Z,1015.64
2018-09-30T00:25:31.439Z,1015.67
2018-09-30T00:26:31.429Z,1015.64
2018-09-30T00:27:31.420Z,1015.60
2018-09-30T00:28:31.431Z,1015.61
2018-09-30T00:29:31.395Z,1015.57
2018-09-30T00:30:31.382Z,1015.58
2018-09-30T00:31:31.376Z,1015.54
2018-09-30T00:32:31.363Z,1015.57
2018-09-30T00:33:31.378Z,1015.59
2018-09-30T00:34:31.339Z,1015.60
2018-09-30T00:35:31.327Z,1015.59
2018-09-30T00:36:31.319Z,1015.59
2018-09-30T00:37:31.321Z,1015.55
2018-09-30T00:38:31.319Z,1015.53
2018-09-30T00:39:31.282Z,1015.52
2018-09-30T00:40:31.272Z,1015.50
2018-09-30T00:41:31.259Z,1015.55
2018-09-30T00:42:31.249Z,1015.52
2018-09-30T00:43:31.263Z,1015.50
2018-09-30T00:44:31.226Z,1015.48
2018-09-30T00:45:31.215Z,1015.46
2018-09-30T00:46:31.204Z,1015.49
2018-09-30T00:47:31.194Z,1015.47
2018-09-30T00:48:31.207Z,1015.45
2018-09-30T00:49:31.171Z,1015.49
2018-09-30T00:50:31.159Z,1015.48
2018-09-30T00:51:31.147Z,1015.42
2018-09-30T00:52:31.143Z,1015.43
2018-09-30T00:53:31.149Z,1015.44
2018-09-30T00:54:31.115Z,1015.42
2018-09-30T00:55:31.102Z,1015.37
2018-09-30T00:56:31.092Z,1015.36
2018-09-30T00:57:31.081Z,1015.29
2018-09-30T00:58:31.095Z,1015.26
2018-09-30T00:59:31.061Z,1015.17
2018-09-30T01:00:31.045Z,1015.21
2018-09-30T01:01:31.036Z,1015.17
2018-09-30T01:02:31.023Z,1015.19
2018-09-30T01:03:31.037Z,1015.13
2018-09-30T01:04:31.002Z,1015.15
2018-09-30T01:05:30.989Z,1015.17
2018-09-30T01:06:30.981Z,1015.20
2018-09-30T01:07:30.969Z,1015.12
2018-09-30T01:08:30.982Z,1015.06
2018-09-30T01:09:30.944Z,1015.07
2018-09-30T01:10:30.934Z,1015.07
2018-09-30T01:11:30.922Z,1015.01
2018-09-30T01:12:30.913Z,1014.97
2018-09-30T01:13:30.929Z,1014.95
2018-09-30T01:14:30.888Z,1014.90
2018-09-30T01:15:30.878Z,1014.95
2018-09-30T01:16:30.868Z,1014.90
2018-09-30T01:17:30.858Z,1014.93
2018-09-30T01:18:30.870Z,1014.93
2018-09-30T01:19:30.832Z,1014.94
2018-09-30T01:20:30.825Z,1014.95
2018-09-30T01:21:30.811Z,1014.96
2018-09-30T01:22:30.799Z,1014.98
2018-09-30T01:23:30.815Z,1014.98
2018-09-30T01:24:30.784Z,1014.94
2018-09-30T01:25:30.768Z,1014.96
2018-09-30T01:26:30.754Z,1014.93
2018-09-30T01:27:30.743Z,1014.89
2018-09-30T01:28:30.758Z,1014.92
2018-09-30T01:29:30.760Z,1014.88
2018-09-30T01:30:30.709Z,1014.88
2018-09-30T01:31:30.735Z,1014.89
2018-09-30T01:32:30.687Z,1014.84
2018-09-30T01:33:30.704Z,1014.90
2018-09-30T01:34:30.665Z,1014.84
2018-09-30T01:35:30.653Z,1014.82
2018-09-30T01:36:30.646Z,1014.81
2018-09-30T01:37:30.631Z,1014.82
2018-09-30T01:38:30.651Z,1014.81
2018-09-30T01:39:30.608Z,1014.80
2018-09-30T01:40:30.597Z,1014.80
2018-09-30T01:41:30.587Z,1014.81
2018-09-30T01:42:30.575Z,1014.86
2018-09-30T01:43:30.592Z,1014.78
2018-09-30T01:44:30.553Z,1014.84
2018-09-30T01:45:30.542Z,1014.82
2018-09-30T01:46:30.531Z,1014.84
2018-09-30T01:47:30.520Z,1014.80
2018-09-30T01:48:30.533Z,1014.76
2018-09-30T01:49:30.499Z,1014.76
2018-09-30T01:50:30.484Z,1014.74
2018-09-30T01:51:30.475Z,1014.75
2018-09-30T01:52:30.464Z,1014.73
2018-09-30T01:53:30.478Z,1014.76
2018-09-30T01:54:30.442Z,1014.71
2018-09-30T01:55:30.429Z,1014.76
2018-09-30T01:56:30.446Z,1014.75
2018-09-30T01:57:30.408Z,1014.73
2018-09-30T01:58:30.422Z,1014.70
2018-09-30T01:59:30.386Z,1014.61
2018-09-30T02:00:30.373Z,1014.64
2018-09-30T02:01:30.365Z,1014.60
2018-09-30T02:02:30.351Z,1014.63
2018-09-30T02:03:30.365Z,1014.60
2018-09-30T02:04:30.329Z,1014.64
2018-09-30T02:05:30.318Z,1014.62
2018-09-30T02:06:30.309Z,1014.64
2018-09-30T02:07:30.295Z,1014.61
2018-09-30T02:08:30.310Z,1014.62
2018-09-30T02:09:30.273Z,1014.56
2018-09-30T02:10:30.263Z,1014.57
2018-09-30T02:11:30.251Z,1014.50
2018-09-30T02:12:30.240Z,1014.49
2018-09-30T02:13:30.231Z,1014.46
2018-09-30T02:14:30.243Z,1014.49
2018-09-30T02:15:30.205Z,1014.48
2018-09-30T02:16:30.196Z,1014.48
2018-09-30T02:17:30.184Z,1014.44
2018-09-30T02:18:30.174Z,1014.49
2018-09-30T02:19:30.187Z,1014.45
2018-09-30T02:20:30.150Z,1014.47
2018-09-30T02:21:30.139Z,1014.48
2018-09-30T02:22:30.128Z,1014.50
2018-09-30T02:23:30.117Z,1014.52
2018-09-30T02:24:30.129Z,1014.47
2018-09-30T02:25:30.103Z,1014.46
2018-09-30T02:26:30.085Z,1014.43
2018-09-30T02:27:30.070Z,1014.46
2018-09-30T02:28:30.061Z,1014.47
2018-09-30T02:29:30.077Z,1014.46
2018-09-30T02:30:30.046Z,1014.47
2018-09-30T02:31:30.026Z,1014.47
2018-09-30T02:32:30.019Z,1014.51
2018-09-30T02:33:30.005Z,1014.47
2018-09-30T02:34:30.020Z,1014.47
2018-09-30T02:35:29.981Z,1014.45
2018-09-30T02:36:29.969Z,1014.44
2018-09-30T02:37:29.963Z,1014.44
2018-09-30T02:38:29.948Z,1014.48
2018-09-30T02:39:29.962Z,1014.40
2018-09-30T02:40:29.924Z,1014.38
2018-09-30T02:41:29.914Z,1014.39
2018-09-30T02:42:29.903Z,1014.37
2018-09-30T02:43:29.892Z,1014.34
2018-09-30T02:44:29.913Z,1014.27
2018-09-30T02:45:29.869Z,1014.26
2018-09-30T02:46:29.862Z,1014.27
2018-09-30T02:47:29.848Z,1014.32
2018-09-30T02:48:29.835Z,1014.31
2018-09-30T02:49:29.851Z,1014.26
2018-09-30T02:50:29.815Z,1014.28
2018-09-30T02:51:29.801Z,1014.29
2018-09-30T02:52:29.790Z,1014.29
2018-09-30T02:53:29.781Z,1014.22
2018-09-30T02:54:29.794Z,1014.27
2018-09-30T02:55:29.760Z,1014.24
2018-09-30T02:56:29.745Z,1014.21
2018-09-30T02:57:29.784Z,1014.17
2018-09-30T02:58:29.723Z,1014.19
2018-09-30T02:59:29.742Z,1014.20
2018-09-30T03:00:29.703Z,1014.19
2018-09-30T03:01:29.690Z,1014.19
2018-09-30T03:02:29.679Z,1014.23
2018-09-30T03:03:29.666Z,1014.19
2018-09-30T03:04:29.683Z,1014.20
2018-09-30T03:05:29.645Z,1014.13
2018-09-30T03:06:29.647Z,1014.16
2018-09-30T03:07:29.625Z,1014.15
2018-09-30T03:08:29.613Z,1014.12
2018-09-30T03:09:29.626Z,1014.12
2018-09-30T03:10:29.591Z,1014.02
2018-09-30T03:11:29.577Z,1014.01
2018-09-30T03:12:29.566Z,1014.02
2018-09-30T03:13:29.555Z,1014.02
2018-09-30T03:14:29.568Z,1014.03
2018-09-30T03:15:29.532Z,1014.02
2018-09-30T03:16:29.521Z,1013.97
2018-09-30T03:17:29.520Z,1013.98
2018-09-30T03:18:29.498Z,1013.91
2018-09-30T03:19:29.514Z,1013.90
2018-09-30T03:20:29.476Z,1013.94
2018-09-30T03:21:29.465Z,1013.85
2018-09-30T03:22:29.456Z,1013.90
2018-09-30T03:23:29.441Z,1013.91
2018-09-30T03:24:29.458Z,1013.88
2018-09-30T03:25:29.420Z,1013.86
2018-09-30T03:26:29.418Z,1013.84
2018-09-30T03:27:29.396Z,1013.87
2018-09-30T03:28:29.385Z,1013.81
2018-09-30T03:29:29.401Z,1013.86
2018-09-30T03:30:29.368Z,1013.78
2018-09-30T03:31:29.356Z,1013.77
2018-09-30T03:32:29.340Z,1013.79
2018-09-30T03:33:29.336Z,1013.72
2018-09-30T03:34:29.346Z,1013.78
2018-09-30T03:35:29.308Z,1013.77
2018-09-30T03:36:29.296Z,1013.78
2018-09-30T03:37:29.284Z,1013.74
2018-09-30T03:38:29.279Z,1013.75
2018-09-30T03:39:29.324Z,1013.76
2018-09-30T03:40:29.253Z,1013.77
2018-09-30T03:41:29.241Z,1013.76
2018-09-30T03:42:29.230Z,1013.78
2018-09-30T03:43:29.218Z,1013.69
2018-09-30T03:44:29.233Z,1013.73
2018-09-30T03:45:29.197Z,1013.77
2018-09-30T03:46:29.183Z,1013.75
2018-09-30T03:47:29.172Z,1013.77
2018-09-30T03:48:29.161Z,1013.78
2018-09-30T03:49:29.176Z,1013.79
2018-09-30T03:50:29.147Z,1013.80
2018-09-30T03:51:29.127Z,1013.81
2018-09-30T03:52:29.117Z,1013.83
2018-09-30T03:53:29.105Z,1013.77
2018-09-30T03:54:29.095Z,1013.73
2018-09-30T03:55:29.110Z,1013.76
2018-09-30T03:56:29.110Z,1013.73
2018-09-30T03:57:29.060Z,1013.78
2018-09-30T03:58:29.049Z,1013.76
2018-09-30T03:59:29.042Z,1013.74
2018-09-30T04:00:29.051Z,1013.73
2018-09-30T04:01:29.015Z,1013.70
2018-09-30T04:02:29.008Z,1013.70
2018-09-30T04:03:28.993Z,1013.67
2018-09-30T04:04:28.983Z,1013.65
2018-09-30T04:05:28.995Z,1013.62
2018-09-30T04:06:28.959Z,1013.59
2018-09-30T04:07:28.952Z,1013.59
2018-09-30T04:08:28.936Z,1013.54
2018-09-30T04:09:28.968Z,1013.53
2018-09-30T04:10:28.940Z,1013.50
2018-09-30T04:11:28.903Z,1013.56
2018-09-30T04:12:28.892Z,1013.54
2018-09-30T04:13:28.880Z,1013.50
2018-09-30T04:14:28.870Z,1013.47
2018-09-30T04:15:28.884Z,1013.46
2018-09-30T04:16:28.847Z,1013.45
2018-09-30T04:17:28.890Z,1013.44
2018-09-30T04:18:28.825Z,1013.44
2018-09-30T04:19:28.820Z,1013.42
2018-09-30T04:20:28.833Z,1013.38
2018-09-30T04:21:28.791Z,1013.39
2018-09-30T04:22:28.781Z,1013.40
2018-09-30T04:23:28.768Z,1013.36
2018-09-30T04:24:28.759Z,1013.37
2018-09-30T04:25:28.772Z,1013.37
2018-09-30T04:26:28.734Z,1013.49
2018-09-30T04:27:28.733Z,1013.39
2018-09-30T04:28:28.713Z,1013.37
2018-09-30T04:29:28.702Z,1013.34
2018-09-30T04:30:28.716Z,1013.38
2018-09-30T04:31:28.677Z,1013.29
2018-09-30T04:32:28.671Z,1013.33
2018-09-30T04:33:28.656Z,1013.31
2018-09-30T04:34:28.651Z,1013.26
2018-09-30T04:35:28.661Z,1013.33
2018-09-30T04:36:28.625Z,1013.24
2018-09-30T04:37:28.612Z,1013.27
2018-09-30T04:38:28.599Z,1013.20
2018-09-30T04:39:28.589Z,1013.16
2018-09-30T04:40:28.605Z,1013.23
2018-09-30T04:41:28.569Z,1013.18
2018-09-30T04:42:28.554Z,1013.18
2018-09-30T04:43:28.544Z,1013.15
2018-09-30T04:44:28.532Z,1013.14
2018-09-30T04:45:28.546Z,1013.15
2018-09-30T04:46:28.511Z,1013.12
2018-09-30T04:47:28.501Z,1013.17
2018-09-30T04:48:28.489Z,1013.13
2018-09-30T04:49:28.476Z,1013.17
2018-09-30T04:50:28.490Z,1013.14
2018-09-30T04:51:28.455Z,1013.19
2018-09-30T04:52:28.445Z,1013.18
2018-09-30T04:53:28.431Z,1013.15
2018-09-30T04:54:28.421Z,1013.16
2018-09-30T04:55:28.434Z,1013.16
2018-09-30T04:56:28.397Z,1013.14
2018-09-30T04:57:28.386Z,1013.21
2018-09-30T04:58:28.374Z,1013.14
2018-09-30T04:59:28.363Z,1013.18
2018-09-30T05:00:28.379Z,1013.17
2018-09-30T05:01:28.347Z,1013.22
2018-09-30T05:02:28.331Z,1013.17
2018-09-30T05:03:28.319Z,1013.16
2018-09-30T05:04:28.306Z,1013.20
2018-09-30T05:05:28.323Z,1013.18
2018-09-30T05:06:28.287Z,1013.16
2018-09-30T05:07:28.274Z,1013.19
2018-09-30T05:08:28.263Z,1013.19
2018-09-30T05:09:28.251Z,1013.14
2018-09-30T05:10:28.266Z,1013.12
2018-09-30T05:11:28.230Z,1013.12
2018-09-30T05:12:28.219Z,1013.13
2018-09-30T05:13:28.206Z,1013.11
2018-09-30T05:14:28.197Z,1013.09
2018-09-30T05:15:28.213Z,1013.11
2018-09-30T05:16:28.214Z,1013.16
2018-09-30T05:17:28.167Z,1013.17
2018-09-30T05:18:28.154Z,1013.13
2018-09-30T05:19:28.144Z,1013.11
2018-09-30T05:20:28.153Z,1013.10
2018-09-30T05:21:28.118Z,1013.10
2018-09-30T05:22:28.106Z,1013.05
2018-09-30T05:23:28.096Z,1013.06
2018-09-30T05:24:28.084Z,1013.07
2018-09-30T05:25:28.136Z,1013.08
2018-09-30T05:26:28.064Z,1013.06
2018-09-30T05:27:28.050Z,1013.08
2018-09-30T05:28:28.050Z,1013.05
2018-09-30T05:29:28.027Z,1013.02
2018-09-30T05:30:28.022Z,1012.99
2018-09-30T05:31:28.031Z,1012.99
2018-09-30T05:32:27.995Z,1012.99
2018-09-30T05:33:27.982Z,1012.95
2018-09-30T05:34:27.971Z,1012.92
2018-09-30T05:35:27.988Z,1012.90
2018-09-30T05:36:27.949Z,1012.87
2018-09-30T05:37:27.939Z,1012.86
2018-09-30T05:38:27.928Z,1012.86
2018-09-30T05:39:27.916Z,1012.81
2018-09-30T05:40:27.906Z,1012.81
2018-09-30T05:41:27.919Z,1012.80
2018-09-30T05:42:27.950Z,1012.77
2018-09-30T05:43:27.872Z,1012.76
2018-09-30T05:44:27.860Z,1012.68
2018-09-30T05:45:27.851Z,1012.76
2018-09-30T05:46:27.866Z,1012.75
2018-09-30T05:47:27.825Z,1012.75
2018-09-30T05:48:27.815Z,1012.77
2018-09-30T05:49:27.804Z,1012.74
2018-09-30T05:50:27.795Z,1012.78
2018-09-30T05:51:27.806Z,1012.79
2018-09-30T05:52:27.770Z,1012.78
2018-09-30T05:53:27.759Z,1012.81
2018-09-30T05:54:27.747Z,1012.85
2018-09-30T05:55:27.738Z,1012.85
2018-09-30T05:56:27.751Z,1012.83
2018-09-30T05:57:27.772Z,1012.88
2018-09-30T05:58:27.706Z,1012.91
2018-09-30T05:59:27.692Z,1012.92
2018-09-30T06:00:27.684Z,1012.92
2018-09-30T06:01:27.694Z,1012.89
2018-09-30T06:02:27.665Z,1012.95
2018-09-30T06:03:27.649Z,1012.95
2018-09-30T06:04:27.637Z,1012.88
2018-09-30T06:05:27.632Z,1012.89
2018-09-30T06:06:27.640Z,1012.92
2018-09-30T06:07:27.604Z,1012.90
2018-09-30T06:08:27.596Z,1012.91
2018-09-30T06:09:27.642Z,1012.93
2018-09-30T06:10:27.568Z,1012.93
2018-09-30T06:11:27.582Z,1012.92
2018-09-30T06:12:27.545Z,1012.92
2018-09-30T06:13:27.536Z,1012.93
2018-09-30T06:14:27.526Z,1012.94
2018-09-30T06:15:27.516Z,1012.96
2018-09-30T06:16:27.527Z,1012.93
2018-09-30T06:17:27.491Z,1012.85
2018-09-30T06:18:27.480Z,1012.86
2018-09-30T06:19:27.469Z,1012.90
2018-09-30T06:20:27.457Z,1012.88
2018-09-30T06:21:27.473Z,1012.89
2018-09-30T06:22:27.437Z,1012.87
2018-09-30T06:23:27.424Z,1012.89
2018-09-30T06:24:27.414Z,1012.87
2018-09-30T06:25:27.403Z,1012.87
2018-09-30T06:26:27.416Z,1012.89
2018-09-30T06:27:27.378Z,1012.88
2018-09-30T06:28:27.367Z,1012.94
2018-09-30T06:29:27.354Z,1012.94
2018-09-30T06:30:27.346Z,1012.96
2018-09-30T06:31:27.383Z,1012.95
2018-09-30T06:32:27.321Z,1012.98
2018-09-30T06:33:27.311Z,1012.97
2018-09-30T06:34:27.301Z,1012.95
2018-09-30T06:35:27.288Z,1012.94
2018-09-30T06:36:27.303Z,1012.95
2018-09-30T06:37:27.267Z,1013.00
2018-09-30T06:38:27.255Z,1013.00
2018-09-30T06:39:27.245Z,1012.99
2018-09-30T06:40:27.294Z,1013.00
2018-09-30T06:41:27.246Z,1013.06
2018-09-30T06:42:27.211Z,1013.03
2018-09-30T06:43:27.198Z,1013.03
2018-09-30T06:44:27.188Z,1013.04
2018-09-30T06:45:27.248Z,1013.05
2018-09-30T06:46:27.190Z,1013.00
2018-09-30T06:47:27.156Z,1013.00
2018-09-30T06:48:27.146Z,1012.97
2018-09-30T06:49:27.132Z,1013.00
2018-09-30T06:50:27.171Z,1012.99
2018-09-30T06:51:27.134Z,1013.04
2018-09-30T06:52:27.099Z,1013.00
2018-09-30T06:53:27.088Z,1012.96
2018-09-30T06:54:27.075Z,1012.98
2018-09-30T06:55:27.063Z,1012.94
2018-09-30T06:56:27.078Z,1012.99
2018-09-30T06:57:27.040Z,1012.98
2018-09-30T06:58:27.031Z,1013.03
2018-09-30T06:59:27.018Z,1013.03
2018-09-30T07:00:27.007Z,1012.97
2018-09-30T07:01:27.023Z,1012.95
2018-09-30T07:02:26.983Z,1012.94
2018-09-30T07:03:26.974Z,1013.00
2018-09-30T07:04:26.963Z,1012.97
2018-09-30T07:05:26.949Z,1013.00
2018-09-30T07:06:26.966Z,1013.01
2018-09-30T07:07:26.930Z,1012.95
2018-09-30T07:08:26.918Z,1012.94
2018-09-30T07:09:26.907Z,1012.89
2018-09-30T07:10:26.893Z,1012.96
2018-09-30T07:11:26.914Z,1012.94
2018-09-30T07:12:26.872Z,1012.99
2018-09-30T07:13:26.860Z,1012.88
2018-09-30T07:14:26.849Z,1012.91
2018-09-30T07:15:26.841Z,1012.89
2018-09-30T07:16:26.829Z,1012.90
2018-09-30T07:17:26.846Z,1012.95
2018-09-30T07:18:26.807Z,1012.92
2018-09-30T07:19:26.792Z,1012.89
2018-09-30T07:20:26.784Z,1012.99
2018-09-30T07:21:26.796Z,1012.94
2018-09-30T07:22:26.822Z,1012.96
2018-09-30T07:23:26.749Z,1012.93
2018-09-30T07:24:26.737Z,1012.98
2018-09-30T07:25:26.727Z,1013.00
2018-09-30T07:26:26.717Z,1013.00
2018-09-30T07:27:26.730Z,1013.01
2018-09-30T07:28:26.693Z,1012.97
2018-09-30T07:29:26.680Z,1013.03
2018-09-30T07:30:26.670Z,1013.07
2018-09-30T07:31:27.047Z,1013.08
2018-09-30T07:32:26.672Z,1013.10
2018-09-30T07:33:26.667Z,1013.09
2018-09-30T07:34:26.629Z,1013.06
2018-09-30T07:35:26.614Z,1013.03
2018-09-30T07:36:26.608Z,1012.99
2018-09-30T07:37:26.619Z,1013.03
2018-09-30T07:38:26.581Z,1013.01
2018-09-30T07:39:26.637Z,1013.03
2018-09-30T07:40:26.559Z,1013.04
2018-09-30T07:41:26.546Z,1013.01
2018-09-30T07:42:26.561Z,1013.04
2018-09-30T07:43:26.524Z,1013.04
2018-09-30T07:44:26.513Z,1013.03
2018-09-30T07:45:26.502Z,1012.98
2018-09-30T07:46:26.491Z,1013.00
2018-09-30T07:47:26.505Z,1013.02
2018-09-30T07:48:26.466Z,1013.02
2018-09-30T07:49:26.456Z,1013.04
2018-09-30T07:50:26.445Z,1013.04
2018-09-30T07:51:26.432Z,1013.03
2018-09-30T07:52:26.504Z,1013.03
2018-09-30T07:53:26.408Z,1012.97
2018-09-30T07:54:26.396Z,1012.95
2018-09-30T07:55:26.386Z,1012.97
2018-09-30T07:56:26.375Z,1012.97
2018-09-30T07:57:26.390Z,1012.96
2018-09-30T07:58:26.356Z,1012.96
2018-09-30T07:59:26.341Z,1012.94
2018-09-30T08:00:26.328Z,1012.90
2018-09-30T08:01:26.318Z,1012.87
2018-09-30T08:02:26.334Z,1012.85
2018-09-30T08:03:26.344Z,1012.85
2018-09-30T08:04:26.285Z,1012.83
2018-09-30T08:05:26.270Z,1012.84
2018-09-30T08:06:26.309Z,1012.85
2018-09-30T08:07:26.272Z,1012.90
2018-09-30T08:08:26.235Z,1012.84
2018-09-30T08:09:26.225Z,1012.80
2018-09-30T08:10:26.216Z,1012.83
2018-09-30T08:11:26.203Z,1012.81
2018-09-30T08:12:26.217Z,1012.77
2018-09-30T08:13:26.180Z,1012.77
2018-09-30T08:14:26.168Z,1012.78
2018-09-30T08:15:26.159Z,1012.75
2018-09-30T08:16:26.157Z,1012.72
2018-09-30T08:17:26.161Z,1012.72
2018-09-30T08:18:26.122Z,1012.75
2018-09-30T08:19:26.112Z,1012.71
2018-09-30T08:20:26.099Z,1012.74
2018-09-30T08:21:26.089Z,1012.72
2018-09-30T08:22:26.103Z,1012.67
2018-09-30T08:23:26.066Z,1012.67
2018-09-30T08:24:26.116Z,1012.65
2018-09-30T08:25:26.043Z,1012.66
2018-09-30T08:26:26.034Z,1012.65
2018-09-30T08:27:26.045Z,1012.63
2018-09-30T08:28:26.011Z,1012.65
2018-09-30T08:29:26.000Z,1012.61
2018-09-30T08:30:25.989Z,1012.63
2018-09-30T08:31:25.975Z,1012.62
2018-09-30T08:32:25.990Z,1012.63
2018-09-30T08:33:25.954Z,1012.66
2018-09-30T08:34:25.942Z,1012.67
2018-09-30T08:35:25.931Z,1012.66
2018-09-30T08:36:25.920Z,1012.65
2018-09-30T08:37:25.934Z,1012.61
2018-09-30T08:38:25.900Z,1012.66
2018-09-30T08:39:25.946Z,1012.65
2018-09-30T08:40:25.874Z,1012.63
2018-09-30T08:41:25.865Z,1012.64
2018-09-30T08:42:25.879Z,1012.68
2018-09-30T08:43:25.842Z,1012.63
2018-09-30T08:44:25.829Z,1012.68
2018-09-30T08:45:25.820Z,1012.61
2018-09-30T08:46:25.811Z,1012.63
2018-09-30T08:47:25.968Z,1012.60
2018-09-30T08:48:25.793Z,1012.57
2018-09-30T08:49:25.800Z,1012.57
2018-09-30T08:50:25.762Z,1012.57
2018-09-30T08:51:25.752Z,1012.58
2018-09-30T08:52:25.766Z,1012.63
2018-09-30T08:53:25.728Z,1012.62
2018-09-30T08:54:25.717Z,1012.60
2018-09-30T08:55:25.707Z,1012.62
2018-09-30T08:56:25.695Z,1012.63
2018-09-30T08:57:25.710Z,1012.62
2018-09-30T08:58:25.673Z,1012.61
2018-09-30T08:59:25.664Z,1012.62
2018-09-30T09:00:25.652Z,1012.61
2018-09-30T09:01:25.637Z,1012.62
2018-09-30T09:02:25.633Z,1012.60
2018-09-30T09:03:25.643Z,1012.58
2018-09-30T09:04:25.606Z,1012.61
2018-09-30T09:05:25.597Z,1012.59
2018-09-30T09:06:25.582Z,1012.50
2018-09-30T09:07:25.624Z,1012.49
2018-09-30T09:08:25.559Z,1012.44
2018-09-30T09:09:25.548Z,1012.45
2018-09-30T09:10:25.542Z,1012.45
2018-09-30T09:11:25.525Z,1012.41
2018-09-30T09:12:25.517Z,1012.40
2018-09-30T09:13:25.536Z,1012.40
2018-09-30T09:14:25.491Z,1012.36
2018-09-30T09:15:25.551Z,1012.40
2018-09-30T09:16:25.469Z,1012.40
2018-09-30T09:17:25.459Z,1012.36
2018-09-30T09:18:25.472Z,1012.37
2018-09-30T09:19:25.435Z,1012.36
2018-09-30T09:20:25.423Z,1012.36
2018-09-30T09:21:25.412Z,1012.33
2018-09-30T09:22:25.566Z,1012.33
2018-09-30T09:23:25.416Z,1012.31
2018-09-30T09:24:25.380Z,1012.30
2018-09-30T09:25:25.366Z,1012.29
2018-09-30T09:26:25.357Z,1012.24
2018-09-30T09:27:25.345Z,1012.27
2018-09-30T09:28:25.361Z,1012.25
2018-09-30T09:29:25.332Z,1012.25
2018-09-30T09:30:25.314Z,1012.27
2018-09-30T09:31:25.301Z,1012.27
2018-09-30T09:32:25.288Z,1012.24
2018-09-30T09:33:25.305Z,1012.23
2018-09-30T09:34:25.265Z,1012.21
2018-09-30T09:35:25.254Z,1012.25
2018-09-30T09:36:25.243Z,1012.22
2018-09-30T09:37:25.231Z,1012.21
2018-09-30T09:38:25.295Z,1012.22
2018-09-30T09:39:25.213Z,1012.19
2018-09-30T09:40:25.200Z,1012.20
2018-09-30T09:41:25.185Z,1012.17
2018-09-30T09:42:25.173Z,1012.16
2018-09-30T09:43:25.189Z,1012.15
2018-09-30T09:44:25.154Z,1012.14
2018-09-30T09:45:25.145Z,1012.16
2018-09-30T09:46:25.130Z,1012.11
2018-09-30T09:47:25.119Z,1012.05
2018-09-30T09:48:25.133Z,1012.02
2018-09-30T09:49:25.097Z,1012.04
2018-09-30T09:50:25.084Z,1012.03
2018-09-30T09:51:25.091Z,1012.04
2018-09-30T09:52:25.132Z,1012.04
2018-09-30T09:53:25.075Z,1012.02
2018-09-30T09:54:25.040Z,1011.93
2018-09-30T09:55:25.027Z,1011.97
2018-09-30T09:56:25.017Z,1011.96
2018-09-30T09:57:25.005Z,1011.96
2018-09-30T09:58:25.021Z,1011.95
2018-09-30T09:59:25.015Z,1011.94
2018-09-30T10:00:24.971Z,1011.94
2018-09-30T10:01:24.959Z,1011.93
2018-09-30T10:02:24.948Z,1011.91
2018-09-30T10:03:24.962Z,1011.89
2018-09-30T10:04:24.926Z,1011.83
2018-09-30T10:05:24.915Z,1011.81
2018-09-30T10:06:24.902Z,1011.79
2018-09-30T10:07:24.892Z,1011.75
2018-09-30T10:08:24.907Z,1011.72
2018-09-30T10:09:24.869Z,1011.69
2018-09-30T10:10:24.857Z,1011.68
2018-09-30T10:11:24.847Z,1011.73
2018-09-30T10:12:24.834Z,1011.71
2018-09-30T10:13:24.850Z,1011.73
2018-09-30T10:14:24.818Z,1011.77
2018-09-30T10:15:24.806Z,1011.75
2018-09-30T10:16:24.791Z,1011.81
2018-09-30T10:17:24.777Z,1011.83
2018-09-30T10:18:24.791Z,1011.82
2018-09-30T10:19:24.815Z,1011.77
2018-09-30T10:20:24.747Z,1011.80
2018-09-30T10:21:24.737Z,1011.81
2018-09-30T10:22:24.722Z,1011.77
2018-09-30T10:23:24.736Z,1011.77
2018-09-30T10:24:24.700Z,1011.75
2018-09-30T10:25:24.692Z,1011.77
2018-09-30T10:26:24.677Z,1011.80
2018-09-30T10:27:24.667Z,1011.78
2018-09-30T10:28:24.680Z,1011.70
2018-09-30T10:29:24.644Z,1011.72
2018-09-30T10:30:24.633Z,1011.76
2018-09-30T10:31:24.620Z,1011.78
2018-09-30T10:32:24.609Z,1011.74
2018-09-30T10:33:24.624Z,1011.76
2018-09-30T10:34:24.587Z,1011.78
2018-09-30T10:35:24.574Z,1011.77
2018-09-30T10:36:24.564Z,1011.82
2018-09-30T10:37:24.554Z,1011.80
2018-09-30T10:38:24.632Z,1011.80
2018-09-30T10:39:24.722Z,1011.73
2018-09-30T10:40:24.518Z,1011.73
2018-09-30T10:41:24.505Z,1011.70
2018-09-30T10:42:24.499Z,1011.64
2018-09-30T10:43:24.514Z,1011.64
2018-09-30T10:44:24.475Z,1011.70
2018-09-30T10:45:24.464Z,1011.66
2018-09-30T10:46:24.452Z,1011.60
2018-09-30T10:47:24.439Z,1011.63
2018-09-30T10:48:24.473Z,1011.60
2018-09-30T10:49:24.442Z,1011.57
2018-09-30T10:50:24.408Z,1011.60
2018-09-30T10:51:24.395Z,1011.57
2018-09-30T10:52:24.385Z,1011.52
2018-09-30T10:53:24.373Z,1011.46
2018-09-30T10:54:24.391Z,1011.44
2018-09-30T10:55:24.469Z,1011.44
2018-09-30T10:56:24.336Z,1011.40
2018-09-30T10:57:24.330Z,1011.43
2018-09-30T10:58:24.315Z,1011.37
2018-09-30T10:59:24.329Z,1011.26
2018-09-30T11:00:24.291Z,1011.24
2018-09-30T11:01:24.284Z,1011.21
2018-09-30T11:02:24.268Z,1011.24
2018-09-30T11:03:24.297Z,1011.22
2018-09-30T11:04:24.273Z,1011.23
2018-09-30T11:05:24.236Z,1011.24
2018-09-30T11:06:24.223Z,1011.19
2018-09-30T11:07:24.214Z,1011.23
2018-09-30T11:08:24.202Z,1011.17
2018-09-30T11:09:24.221Z,1011.16
2018-09-30T11:10:24.180Z,1011.19
2018-09-30T11:11:24.172Z,1011.20
2018-09-30T11:12:24.159Z,1011.18
2018-09-30T11:13:24.146Z,1011.14
2018-09-30T11:14:24.161Z,1011.17
2018-09-30T11:15:24.123Z,1011.05
2018-09-30T11:16:24.117Z,1011.04
2018-09-30T11:17:24.107Z,1011.07
2018-09-30T11:18:24.090Z,1011.09
2018-09-30T11:19:24.105Z,1011.04
2018-09-30T11:20:24.067Z,1011.03
2018-09-30T11:21:24.052Z,1010.97
2018-09-30T11:22:24.061Z,1010.96
2018-09-30T11:23:24.034Z,1010.97
2018-09-30T11:24:24.047Z,1010.91
2018-09-30T11:25:24.008Z,1010.96
2018-09-30T11:26:23.999Z,1010.95
2018-09-30T11:27:23.988Z,1010.87
2018-09-30T11:28:23.977Z,1010.88
2018-09-30T11:29:23.989Z,1010.89
2018-09-30T11:30:23.953Z,1010.90
2018-09-30T11:31:23.939Z,1010.84
2018-09-30T11:32:23.930Z,1010.81
2018-09-30T11:33:23.918Z,1010.82
2018-09-30T11:34:23.932Z,1010.79
2018-09-30T11:35:23.896Z,1010.78
2018-09-30T11:36:23.886Z,1010.74
2018-09-30T11:37:23.878Z,1010.75
2018-09-30T11:38:23.861Z,1010.82
2018-09-30T11:39:23.884Z,1010.79
2018-09-30T11:40:23.842Z,1010.71
2018-09-30T11:41:23.830Z,1010.74
2018-09-30T11:42:23.817Z,1010.72
2018-09-30T11:43:23.806Z,1010.59
2018-09-30T11:44:23.819Z,1010.68
2018-09-30T11:45:23.785Z,1010.72
2018-09-30T11:46:23.774Z,1010.61
2018-09-30T11:47:23.764Z,1010.65
2018-09-30T11:48:23.750Z,1010.66
2018-09-30T11:49:23.764Z,1010.62
2018-09-30T11:50:23.726Z,1010.69
2018-09-30T11:51:23.714Z,1010.65
2018-09-30T11:52:23.705Z,1010.65
2018-09-30T11:53:23.693Z,1010.70
2018-09-30T11:54:23.710Z,1010.68
2018-09-30T11:55:23.672Z,1010.75
2018-09-30T11:56:23.666Z,1010.64
2018-09-30T11:57:23.647Z,1010.66
2018-09-30T11:58:23.639Z,1010.71
2018-09-30T11:59:23.653Z,1010.67
2018-09-30T12:00:23.615Z,1010.65
2018-09-30T12:01:23.631Z,1010.61
2018-09-30T12:02:23.629Z,1010.65
2018-09-30T12:03:23.585Z,1010.67
2018-09-30T12:04:23.596Z,1010.64
2018-09-30T12:05:23.559Z,1010.64